createdAt,value
2023-03-17T00:00:45.886Z,55.34
2023-03-17T00:03:50.509Z,54.91
2023-03-17T00:06:53.021Z,55.54
2023-03-17T00:09:55.954Z,56.75
2023-03-17T00:12:57.572Z,57.64
2023-03-17T00:16:01.602Z,58.37
2023-03-17T00:19:04.130Z,58.92
2023-03-17T00:22:15.306Z,58.37
2023-03-17T00:25:20.698Z,60.00
2023-03-17T00:28:26.200Z,59.86
2023-03-17T00:31:30.538Z,60.75
2023-03-17T00:34:32.549Z,60.20
2023-03-17T00:37:34.101Z,61.14
2023-03-17T00:40:36.781Z,63.32
2023-03-17T00:43:39.231Z,63.16
2023-03-17T00:46:41.651Z,63.64
2023-03-17T00:49:49.931Z,65.08
2023-03-17T00:52:53.440Z,65.45
2023-03-17T00:55:55.258Z,63.27
2023-03-17T00:58:56.896Z,64.22
2023-03-17T01:01:58.661Z,63.83
2023-03-17T01:05:06.226Z,64.57
2023-03-17T01:08:10.358Z,66.04
2023-03-17T01:11:20.124Z,66.75
2023-03-17T01:14:22.890Z,66.94
2023-03-17T01:17:24.550Z,67.81
2023-03-17T01:20:29.471Z,68.77
2023-03-17T01:23:31.828Z,68.96
2023-03-17T01:26:33.635Z,67.13
2023-03-17T01:29:35.241Z,67.92
2023-03-17T01:32:37.266Z,67.61
2023-03-17T01:35:39.740Z,66.31
2023-03-17T01:38:42.141Z,64.41
2023-03-17T01:41:43.716Z,60.93
2023-03-17T01:45:05.829Z,57.70
2023-03-17T01:48:07.614Z,55.21
2023-03-17T01:51:13.795Z,54.63
2023-03-17T01:54:39.971Z,54.05
2023-03-17T01:57:46.759Z,55.63
2023-03-17T02:00:48.836Z,56.75
2023-03-17T02:03:51.994Z,59.96
2023-03-17T02:06:58.471Z,62.98
2023-03-17T02:10:00.946Z,65.81
2023-03-17T02:13:05.579Z,65.84
2023-03-17T02:16:07.546Z,66.37
2023-03-17T02:19:09.566Z,67.08
2023-03-17T02:22:11.518Z,66.96
2023-03-17T02:25:14.101Z,66.80
2023-03-17T02:28:21.534Z,66.53
2023-03-17T02:31:26.336Z,65.98
2023-03-17T02:34:28.005Z,62.83
2023-03-17T02:37:29.908Z,62.59
2023-03-17T02:40:32.080Z,62.68
2023-03-17T02:43:33.914Z,65.96
2023-03-17T02:46:36.189Z,61.06
2023-03-17T02:49:40.705Z,60.03
2023-03-17T02:52:42.305Z,62.82
2023-03-17T02:55:43.930Z,64.31
2023-03-17T02:58:45.532Z,63.86
2023-03-17T03:01:48.595Z,64.75
2023-03-17T03:04:50.434Z,66.84
2023-03-17T03:07:52.415Z,68.02
2023-03-17T03:10:54.993Z,67.08
2023-03-17T03:13:56.996Z,66.50
2023-03-17T03:16:58.570Z,66.75
2023-03-17T03:20:00.222Z,68.18
2023-03-17T03:23:01.928Z,66.74
2023-03-17T03:26:03.679Z,68.06
2023-03-17T03:29:05.375Z,69.31
2023-03-17T03:32:07.363Z,69.86
2023-03-17T03:35:09.430Z,68.91
2023-03-17T03:38:12.628Z,69.08
2023-03-17T03:41:14.325Z,69.87
2023-03-17T03:44:16.159Z,70.73
2023-03-17T03:47:17.734Z,69.31
2023-03-17T03:50:20.907Z,66.86
2023-03-17T03:53:22.710Z,64.68
2023-03-17T03:56:24.478Z,61.61
2023-03-17T03:59:26.560Z,62.08
2023-03-17T04:02:28.265Z,69.17
2023-03-17T04:05:29.966Z,69.94
2023-03-17T04:08:31.882Z,70.41
2023-03-17T04:11:36.082Z,69.79
2023-03-17T04:14:37.814Z,69.17
2023-03-17T04:17:39.543Z,70.14
2023-03-17T04:20:41.198Z,68.78
2023-03-17T04:23:42.868Z,67.82
2023-03-17T04:26:44.415Z,69.46
2023-03-17T04:29:46.014Z,69.80
2023-03-17T04:32:47.619Z,69.21
2023-03-17T04:35:49.279Z,70.59
2023-03-17T04:38:51.101Z,70.29
2023-03-17T04:41:52.820Z,69.47
2023-03-17T04:44:54.488Z,67.24
2023-03-17T04:47:56.122Z,68.62
2023-03-17T04:50:57.863Z,67.08
2023-03-17T04:54:00.630Z,66.77
2023-03-17T04:57:02.214Z,65.90
2023-03-17T05:00:09.868Z,65.56
2023-03-17T05:03:26.056Z,67.43
2023-03-17T05:06:28.477Z,65.97
2023-03-17T05:09:30.097Z,62.25
2023-03-17T05:12:31.816Z,59.89
2023-03-17T05:15:33.530Z,62.31
2023-03-17T05:18:36.184Z,60.18
2023-03-17T05:21:37.925Z,60.26
2023-03-17T05:24:39.517Z,62.99
2023-03-17T05:27:41.537Z,64.44
2023-03-17T05:30:43.787Z,65.03
2023-03-17T05:33:46.442Z,65.58
2023-03-17T05:36:48.043Z,64.40
2023-03-17T05:39:49.684Z,62.77
2023-03-17T05:42:51.656Z,64.83
2023-03-17T05:45:53.743Z,64.66
2023-03-17T05:48:55.435Z,66.22
2023-03-17T05:51:57.402Z,65.88
2023-03-17T05:54:59.026Z,65.52
2023-03-17T05:58:00.950Z,65.25
2023-03-17T06:01:02.726Z,66.87
2023-03-17T06:04:04.500Z,66.25
2023-03-17T06:07:06.703Z,66.35
2023-03-17T06:10:09.123Z,66.14
2023-03-17T06:13:11.737Z,65.33
2023-03-17T06:16:13.736Z,61.88
2023-03-17T06:19:15.443Z,61.76
2023-03-17T06:22:17.131Z,65.01
2023-03-17T06:25:18.962Z,64.79
2023-03-17T06:28:20.632Z,64.77
2023-03-17T06:31:22.413Z,65.13
2023-03-17T06:34:24.612Z,65.65
2023-03-17T06:37:26.533Z,66.03
2023-03-17T06:40:28.432Z,67.25
2023-03-17T06:43:30.053Z,67.87
2023-03-17T06:46:32.516Z,68.91
2023-03-17T06:49:34.336Z,68.92
2023-03-17T06:52:36.780Z,69.01
2023-03-17T06:55:38.569Z,68.34
2023-03-17T06:58:40.231Z,68.93
2023-03-17T07:01:41.832Z,69.57
2023-03-17T07:04:43.607Z,69.22
2023-03-17T07:07:45.555Z,70.03
2023-03-17T07:10:47.203Z,71.33
2023-03-17T07:13:48.866Z,70.32
2023-03-17T07:16:50.490Z,70.60
2023-03-17T07:19:52.431Z,70.92
2023-03-17T07:22:54.100Z,71.51
2023-03-17T07:25:57.443Z,71.57
2023-03-17T07:29:01.396Z,71.02
2023-03-17T07:32:06.167Z,71.30
2023-03-17T07:35:08.216Z,71.68
2023-03-17T07:38:10.716Z,71.80
2023-03-17T07:41:12.347Z,70.67
2023-03-17T07:44:13.984Z,71.17
2023-03-17T07:47:15.763Z,70.22
2023-03-17T07:50:18.620Z,70.50
2023-03-17T07:53:20.333Z,68.68
2023-03-17T07:56:22.119Z,69.20
2023-03-17T07:59:23.895Z,67.74
2023-03-17T08:02:26.579Z,66.77
2023-03-17T08:05:28.287Z,65.00
2023-03-17T08:08:29.939Z,65.03
2023-03-17T08:11:31.548Z,64.91
2023-03-17T08:14:33.141Z,65.62
2023-03-17T08:17:36.572Z,63.98
2023-03-17T08:20:39.112Z,60.09
2023-03-17T08:23:40.708Z,57.15
2023-03-17T08:26:43.236Z,58.23
2023-03-17T08:29:45.297Z,57.09
2023-03-17T08:32:48.089Z,55.32
2023-03-17T08:35:50.124Z,55.04
2023-03-17T08:38:53.138Z,54.85
2023-03-17T08:41:54.743Z,51.58
2023-03-17T08:44:56.490Z,54.78
2023-03-17T08:47:58.398Z,50.63
2023-03-17T08:51:00.115Z,46.84
2023-03-17T08:54:02.366Z,47.46
2023-03-17T08:57:04.162Z,48.52
2023-03-17T09:00:11.166Z,48.35
2023-03-17T09:03:13.852Z,50.27
2023-03-17T09:06:15.667Z,50.47
2023-03-17T09:09:18.241Z,49.23
2023-03-17T09:12:19.818Z,49.83
2023-03-17T09:15:22.359Z,49.13
2023-03-17T09:18:24.098Z,52.69
2023-03-17T09:21:25.723Z,50.95
2023-03-17T09:24:27.360Z,50.82
2023-03-17T09:27:28.927Z,49.00
2023-03-17T09:30:31.224Z,49.92
2023-03-17T09:33:33.277Z,49.05
2023-03-17T09:36:34.889Z,47.72
2023-03-17T09:39:36.504Z,46.80
2023-03-17T09:42:47.589Z,48.89
2023-03-17T09:45:49.303Z,47.09
2023-03-17T09:49:17.114Z,47.95
2023-03-17T09:52:25.660Z,48.23
2023-03-17T09:55:31.325Z,51.06
2023-03-17T09:58:35.059Z,47.77
2023-03-17T10:01:41.033Z,46.28
2023-03-17T10:04:45.004Z,47.74
2023-03-17T10:08:27.087Z,46.77
2023-03-17T10:11:40.536Z,46.12
2023-03-17T10:14:54.408Z,46.28
2023-03-17T10:17:56.734Z,46.51
2023-03-17T10:21:05.101Z,46.85
2023-03-17T10:24:07.456Z,48.11
2023-03-17T10:27:13.709Z,47.15
2023-03-17T10:30:17.406Z,45.70
2023-03-17T10:33:19.665Z,47.88
2023-03-17T10:36:37.745Z,48.91
2023-03-17T10:39:49.112Z,48.15
2023-03-17T10:43:18.982Z,49.06
2023-03-17T10:46:25.871Z,45.46
2023-03-17T10:49:35.188Z,45.41
2023-03-17T10:52:40.799Z,47.81
2023-03-17T10:55:49.862Z,47.08
2023-03-17T10:58:53.536Z,46.09
2023-03-17T11:02:17.054Z,45.56
2023-03-17T11:05:22.338Z,45.88
2023-03-17T11:08:24.307Z,49.85
2023-03-17T11:11:26.306Z,47.32
2023-03-17T11:14:28.374Z,46.16
2023-03-17T11:17:48.280Z,46.57
2023-03-17T11:20:58.654Z,49.33
2023-03-17T11:24:14.136Z,47.62
2023-03-17T11:27:26.322Z,47.24
2023-03-17T11:30:38.452Z,46.27
2023-03-17T11:33:51.197Z,46.89
2023-03-17T11:37:12.031Z,45.57
2023-03-17T11:40:21.749Z,43.63
2023-03-17T11:43:47.749Z,45.00
2023-03-17T11:47:15.240Z,43.11
2023-03-17T11:50:40.204Z,44.44
2023-03-17T11:53:57.012Z,46.19
2023-03-17T11:57:02.975Z,44.81
2023-03-17T12:00:07.034Z,42.98
2023-03-17T12:03:20.424Z,42.33
2023-03-17T12:06:28.829Z,42.08
2023-03-17T12:09:37.336Z,44.29
2023-03-17T12:12:47.195Z,43.55
2023-03-17T12:15:55.947Z,43.13
2023-03-17T12:19:16.533Z,41.14
2023-03-17T12:22:28.506Z,39.96
2023-03-17T12:25:45.051Z,39.77
2023-03-17T12:28:50.011Z,41.96
2023-03-17T12:32:08.364Z,40.30
2023-03-17T12:35:29.324Z,40.34
2023-03-17T12:38:39.279Z,41.43
2023-03-17T12:41:59.701Z,39.89
2023-03-17T12:45:16.676Z,39.69
2023-03-17T12:48:50.345Z,38.56
2023-03-17T12:52:21.188Z,41.24
2023-03-17T12:55:25.553Z,40.77
2023-03-17T12:58:40.916Z,41.35
2023-03-17T13:01:54.616Z,40.61
2023-03-17T13:05:00.658Z,40.45
2023-03-17T13:08:04.304Z,41.78
2023-03-17T13:11:17.736Z,39.92
2023-03-17T13:14:27.234Z,39.93
2023-03-17T13:17:28.845Z,37.51
2023-03-17T13:20:39.123Z,39.63
2023-03-17T13:23:48.179Z,40.32
2023-03-17T13:27:01.645Z,38.90
2023-03-17T13:30:26.830Z,39.70
2023-03-17T13:33:32.603Z,41.46
2023-03-17T13:36:52.506Z,42.01
2023-03-17T13:40:19.698Z,41.91
2023-03-17T13:43:56.033Z,46.28
2023-03-17T13:47:15.948Z,45.29
2023-03-17T13:50:40.162Z,44.01
2023-03-17T13:53:55.472Z,42.83
2023-03-17T13:57:25.569Z,42.70
2023-03-17T14:00:33.329Z,43.46
2023-03-17T14:03:45.998Z,44.20
2023-03-17T14:06:51.432Z,45.02
2023-03-17T14:09:59.281Z,45.67
2023-03-17T14:13:12.333Z,46.70
2023-03-17T14:16:20.154Z,47.82
2023-03-17T14:19:28.206Z,49.53
2023-03-17T14:22:29.784Z,49.37
2023-03-17T14:25:38.659Z,48.54
2023-03-17T14:28:40.631Z,47.68
2023-03-17T14:31:47.456Z,47.34
2023-03-17T14:34:56.273Z,47.29
2023-03-17T14:37:58.411Z,46.17
2023-03-17T14:41:16.565Z,46.82
2023-03-17T14:44:18.146Z,44.06
2023-03-17T14:47:23.798Z,45.17
2023-03-17T14:50:31.618Z,46.41
2023-03-17T14:53:35.105Z,43.29
2023-03-17T14:56:47.896Z,44.78
2023-03-17T15:00:31.957Z,43.59
2023-03-17T15:03:51.963Z,43.67
2023-03-17T15:06:56.844Z,44.11
2023-03-17T15:10:02.325Z,43.46
2023-03-17T15:13:06.266Z,43.28
2023-03-17T15:16:23.152Z,42.67
2023-03-17T15:19:28.952Z,42.08
2023-03-17T15:22:41.562Z,41.47
2023-03-17T15:25:46.607Z,41.08
2023-03-17T15:28:48.329Z,41.59
2023-03-17T15:31:50.123Z,41.76
2023-03-17T15:34:54.894Z,42.29
2023-03-17T15:37:57.162Z,43.43
2023-03-17T15:40:58.830Z,42.84
2023-03-17T15:44:00.735Z,43.34
2023-03-17T15:47:02.956Z,43.23
2023-03-17T15:50:16.370Z,42.99
2023-03-17T15:53:18.489Z,42.66
2023-03-17T15:56:21.776Z,39.70
2023-03-17T15:59:23.449Z,38.95
2023-03-17T16:02:28.770Z,37.99
2023-03-17T16:05:32.651Z,37.15
2023-03-17T16:08:34.453Z,38.44
2023-03-17T16:11:36.030Z,38.69
2023-03-17T16:14:38.153Z,38.83
2023-03-17T16:17:39.730Z,38.93
2023-03-17T16:20:44.327Z,38.97
2023-03-17T16:23:47.138Z,39.12
2023-03-17T16:26:50.423Z,39.28
2023-03-17T16:29:52.059Z,39.17
2023-03-17T16:32:54.669Z,37.54
2023-03-17T16:35:57.473Z,36.67
2023-03-17T16:39:00.039Z,36.80
2023-03-17T16:42:01.744Z,36.45
2023-03-17T16:45:03.583Z,36.38
2023-03-17T16:48:05.590Z,36.45
2023-03-17T16:51:07.320Z,36.58
2023-03-17T16:54:10.620Z,36.36
2023-03-17T16:57:12.832Z,37.00
2023-03-17T17:00:18.880Z,37.08
2023-03-17T17:03:20.766Z,37.34
2023-03-17T17:06:23.535Z,37.63
2023-03-17T17:09:25.220Z,37.45
2023-03-17T17:12:26.749Z,38.06
2023-03-17T17:15:30.446Z,37.81
2023-03-17T17:18:32.085Z,38.21
2023-03-17T17:21:33.910Z,39.05
2023-03-17T17:24:35.692Z,39.27
2023-03-17T17:27:39.366Z,41.18
2023-03-17T17:30:45.020Z,41.53
2023-03-17T17:33:46.724Z,42.42
2023-03-17T17:36:48.355Z,44.60
2023-03-17T17:39:51.567Z,44.00
2023-03-17T17:42:53.793Z,43.37
2023-03-17T17:45:55.757Z,45.02
2023-03-17T17:48:57.498Z,45.33
2023-03-17T17:51:59.101Z,44.96
2023-03-17T17:55:01.403Z,44.06
2023-03-17T17:58:03.104Z,41.83
2023-03-17T18:01:05.545Z,41.78
2023-03-17T18:04:07.509Z,41.24
2023-03-17T18:07:09.372Z,40.04
2023-03-17T18:10:17.994Z,39.95
2023-03-17T18:13:21.985Z,40.81
2023-03-17T18:16:29.045Z,41.18
2023-03-17T18:19:31.160Z,44.93
2023-03-17T18:22:33.569Z,45.09
2023-03-17T18:25:35.950Z,44.93
2023-03-17T18:28:37.587Z,44.44
2023-03-17T18:31:46.569Z,46.21
2023-03-17T18:34:48.589Z,47.11
2023-03-17T18:37:51.808Z,48.74
2023-03-17T18:40:53.426Z,46.85
2023-03-17T18:43:55.107Z,48.51
2023-03-17T18:46:57.145Z,50.54
2023-03-17T18:49:59.695Z,51.28
2023-03-17T18:53:01.652Z,49.58
2023-03-17T18:56:03.215Z,49.56
2023-03-17T18:59:04.808Z,50.07
2023-03-17T19:02:07.195Z,49.74
2023-03-17T19:05:09.793Z,51.52
2023-03-17T19:08:11.633Z,52.36
2023-03-17T19:11:15.319Z,51.22
2023-03-17T19:14:17.087Z,50.37
2023-03-17T19:17:18.674Z,49.38
2023-03-17T19:20:20.398Z,51.54
2023-03-17T19:23:22.337Z,50.28
2023-03-17T19:26:24.162Z,51.87
2023-03-17T19:29:27.760Z,51.29
2023-03-17T19:32:29.367Z,51.28
2023-03-17T19:35:31.551Z,52.15
2023-03-17T19:38:33.224Z,51.15
2023-03-17T19:41:35.031Z,50.17
2023-03-17T19:44:36.961Z,47.63
2023-03-17T19:47:38.631Z,47.41
2023-03-17T19:50:40.771Z,50.85
2023-03-17T19:53:42.395Z,51.14
2023-03-17T19:56:43.983Z,46.58
2023-03-17T19:59:45.563Z,44.45
2023-03-17T20:02:47.615Z,47.09
2023-03-17T20:05:52.173Z,44.90
2023-03-17T20:08:54.235Z,45.05
2023-03-17T20:11:56.530Z,46.85
2023-03-17T20:14:58.394Z,46.71
2023-03-17T20:17:59.958Z,46.17
2023-03-17T20:21:05.604Z,45.52
2023-03-17T20:24:08.733Z,45.34
2023-03-17T20:27:11.364Z,45.98
2023-03-17T20:30:13.284Z,45.34
2023-03-17T20:33:15.028Z,46.89
2023-03-17T20:36:16.925Z,47.11
2023-03-17T20:39:21.457Z,44.91
2023-03-17T20:42:23.659Z,47.20
2023-03-17T20:45:25.637Z,48.29
2023-03-17T20:48:27.327Z,46.99
2023-03-17T20:51:28.941Z,48.62
2023-03-17T20:54:30.642Z,48.85
2023-03-17T20:57:33.147Z,47.14
2023-03-17T21:00:34.786Z,49.75
2023-03-17T21:03:37.217Z,47.45
2023-03-17T21:06:39.652Z,46.08
2023-03-17T21:09:41.386Z,48.65
2023-03-17T21:12:43.845Z,49.66
2023-03-17T21:15:45.445Z,49.27
2023-03-17T21:18:47.973Z,50.71
2023-03-17T21:21:49.533Z,50.10
2023-03-17T21:24:52.013Z,49.93
2023-03-17T21:27:53.956Z,49.71
2023-03-17T21:30:55.560Z,48.72
2023-03-17T21:33:57.189Z,50.53
2023-03-17T21:36:59.780Z,50.06
2023-03-17T21:40:01.474Z,50.68
2023-03-17T21:43:03.761Z,50.05
2023-03-17T21:46:05.765Z,48.12
2023-03-17T21:49:08.043Z,49.72
2023-03-17T21:52:10.459Z,48.40
2023-03-17T21:55:12.431Z,49.04
2023-03-17T21:58:13.985Z,48.88
2023-03-17T22:01:17.484Z,49.50
2023-03-17T22:04:19.195Z,49.41
2023-03-17T22:07:20.888Z,47.97
2023-03-17T22:10:22.509Z,49.62
2023-03-17T22:13:24.413Z,47.20
2023-03-17T22:16:26.132Z,46.56
2023-03-17T22:19:28.672Z,46.19
2023-03-17T22:22:30.337Z,46.31
2023-03-17T22:25:31.958Z,46.07
2023-03-17T22:28:33.616Z,44.21
2023-03-17T22:31:35.587Z,45.34
2023-03-17T22:34:37.496Z,45.02
2023-03-17T22:37:40.386Z,44.74
2023-03-17T22:40:42.033Z,45.93
2023-03-17T22:43:44.117Z,45.59
2023-03-17T22:46:46.090Z,46.20
2023-03-17T22:49:47.922Z,45.79
2023-03-17T22:52:49.730Z,44.06
2023-03-17T22:55:51.373Z,44.29
2023-03-17T22:58:54.333Z,44.03
2023-03-17T23:01:56.036Z,44.00
2023-03-17T23:04:58.793Z,44.09
2023-03-17T23:08:00.460Z,44.58
2023-03-17T23:11:06.509Z,44.47
2023-03-17T23:14:08.592Z,41.77
2023-03-17T23:17:10.259Z,42.21
2023-03-17T23:20:12.375Z,40.26
2023-03-17T23:23:14.393Z,40.35
2023-03-17T23:26:16.574Z,44.00
2023-03-17T23:29:18.936Z,41.81
2023-03-17T23:32:21.000Z,42.40
2023-03-17T23:35:23.152Z,42.92
2023-03-17T23:38:25.185Z,43.13
2023-03-17T23:41:27.030Z,43.97
2023-03-17T23:44:28.730Z,44.40
2023-03-17T23:47:30.615Z,44.33
2023-03-17T23:50:32.839Z,43.44
2023-03-17T23:53:34.615Z,43.84
2023-03-17T23:56:36.558Z,43.71
2023-03-17T23:59:38.559Z,44.11
